createdAt,value
2022-09-20T00:01:22.299Z,8.27
2022-09-20T00:03:54.496Z,8.05
2022-09-20T00:06:23.302Z,7.97
2022-09-20T00:08:50.114Z,7.93
2022-09-20T00:11:19.517Z,7.87
2022-09-20T00:13:47.436Z,7.89
2022-09-20T00:16:17.930Z,7.85
2022-09-20T00:18:48.437Z,7.84
2022-09-20T00:21:20.542Z,7.77
2022-09-20T00:23:47.017Z,7.79
2022-09-20T00:26:17.521Z,7.79
2022-09-20T00:28:44.228Z,7.83
2022-09-20T00:31:11.365Z,7.75
2022-09-20T00:33:56.416Z,7.77
2022-09-20T00:36:22.935Z,7.75
2022-09-20T00:38:49.432Z,7.68
2022-09-20T00:41:15.914Z,7.68
2022-09-20T00:43:46.486Z,7.59
2022-09-20T00:46:26.632Z,7.64
2022-09-20T00:48:57.641Z,7.58
2022-09-20T00:51:35.267Z,7.37
2022-09-20T00:54:04.566Z,7.09
2022-09-20T00:56:33.275Z,6.26
2022-09-20T00:59:08.849Z,6.10
2022-09-20T01:01:35.511Z,6.56
2022-09-20T01:04:02.665Z,6.66
2022-09-20T01:06:29.507Z,6.64
2022-09-20T01:08:58.348Z,6.02
2022-09-20T01:11:25.644Z,6.35
2022-09-20T01:13:52.171Z,6.23
2022-09-20T01:16:19.060Z,6.27
2022-09-20T01:18:46.374Z,6.45
2022-09-20T01:21:13.597Z,6.67
2022-09-20T01:23:55.002Z,6.83
2022-09-20T01:26:37.605Z,6.83
2022-09-20T01:29:23.579Z,6.72
2022-09-20T01:31:55.252Z,6.53
2022-09-20T01:34:29.774Z,6.49
2022-09-20T01:37:07.079Z,6.43
2022-09-20T01:39:55.749Z,6.22
2022-09-20T01:42:26.309Z,6.29
2022-09-20T01:45:28.919Z,6.38
2022-09-20T01:48:08.154Z,6.31
2022-09-20T01:50:54.152Z,6.44
2022-09-20T01:53:56.712Z,6.43
2022-09-20T01:56:44.351Z,6.36
2022-09-20T01:59:47.456Z,6.27
2022-09-20T02:02:47.129Z,6.29
2022-09-20T02:05:43.004Z,6.29
2022-09-20T02:08:28.128Z,6.31
2022-09-20T02:11:00.851Z,6.26
2022-09-20T02:13:38.478Z,6.16
2022-09-20T02:16:09.330Z,6.25
2022-09-20T02:18:56.780Z,6.27
2022-09-20T02:21:58.284Z,6.14
2022-09-20T02:24:33.839Z,6.17
2022-09-20T02:27:08.129Z,6.16
2022-09-20T02:30:08.929Z,6.17
2022-09-20T02:32:52.281Z,6.18
2022-09-20T02:35:26.051Z,6.14
2022-09-20T02:38:19.290Z,6.06
2022-09-20T02:41:04.700Z,5.91
2022-09-20T02:43:49.741Z,5.88
2022-09-20T02:46:37.903Z,5.93
2022-09-20T02:49:13.696Z,6.02
2022-09-20T02:51:50.012Z,6.05
2022-09-20T02:54:30.685Z,6.09
2022-09-20T02:57:04.074Z,6.09
2022-09-20T02:59:45.645Z,6.10
2022-09-20T03:02:43.893Z,6.05
2022-09-20T03:05:39.706Z,6.05
2022-09-20T03:08:47.773Z,5.95
2022-09-20T03:11:30.858Z,5.80
2022-09-20T03:14:11.691Z,5.80
2022-09-20T03:16:56.904Z,5.82
2022-09-20T03:19:55.766Z,5.74
2022-09-20T03:22:41.860Z,5.74
2022-09-20T03:25:32.605Z,5.61
2022-09-20T03:28:38.227Z,5.61
2022-09-20T03:31:45.721Z,5.62
2022-09-20T03:34:23.975Z,5.66
2022-09-20T03:37:13.702Z,5.72
2022-09-20T03:39:56.433Z,5.65
2022-09-20T03:42:27.161Z,5.65
2022-09-20T03:45:12.312Z,5.71
2022-09-20T03:48:11.399Z,5.57
2022-09-20T03:50:54.407Z,5.64
2022-09-20T03:53:40.668Z,5.68
2022-09-20T03:56:31.448Z,5.75
2022-09-20T03:59:23.006Z,5.78
2022-09-20T04:02:10.305Z,5.78
2022-09-20T04:04:45.771Z,5.68
2022-09-20T04:07:18.154Z,5.55
2022-09-20T04:10:13.745Z,5.60
2022-09-20T04:12:54.743Z,5.62
2022-09-20T04:15:51.756Z,5.57
2022-09-20T04:18:30.736Z,5.36
2022-09-20T04:21:03.922Z,5.27
2022-09-20T04:23:54.306Z,5.28
2022-09-20T04:26:26.043Z,5.22
2022-09-20T04:29:21.676Z,5.18
2022-09-20T04:32:07.556Z,5.23
2022-09-20T04:35:22.841Z,5.29
2022-09-20T04:37:49.923Z,5.06
2022-09-20T04:40:34.586Z,5.03
2022-09-20T04:43:10.091Z,5.22
2022-09-20T04:45:55.011Z,5.39
2022-09-20T04:48:32.044Z,5.42
2022-09-20T04:51:24.678Z,5.44
2022-09-20T04:54:28.758Z,5.30
2022-09-20T04:57:24.763Z,5.29
2022-09-20T05:00:04.442Z,5.23
2022-09-20T05:02:55.115Z,5.20
2022-09-20T05:05:49.217Z,5.21
2022-09-20T05:08:33.931Z,5.18
2022-09-20T05:11:30.604Z,5.11
2022-09-20T05:14:01.006Z,5.15
2022-09-20T05:16:50.741Z,5.15
2022-09-20T05:19:26.412Z,4.74
2022-09-20T05:22:26.389Z,4.89
2022-09-20T05:25:22.210Z,5.25
2022-09-20T05:28:07.525Z,5.14
2022-09-20T05:30:54.085Z,5.20
2022-09-20T05:33:32.197Z,5.28
2022-09-20T05:36:14.655Z,5.24
2022-09-20T05:38:56.401Z,5.28
2022-09-20T05:41:38.813Z,5.10
2022-09-20T05:44:47.489Z,5.06
2022-09-20T05:47:20.455Z,5.68
2022-09-20T05:49:58.895Z,6.01
2022-09-20T05:52:43.043Z,6.43
2022-09-20T05:55:28.845Z,7.28
2022-09-20T05:58:21.263Z,8.20
2022-09-20T06:01:06.881Z,8.68
2022-09-20T06:03:54.404Z,9.77
2022-09-20T06:06:45.270Z,9.30
2022-09-20T06:09:34.708Z,10.34
2022-09-20T06:12:46.408Z,10.05
2022-09-20T06:15:36.656Z,11.56
2022-09-20T06:18:16.554Z,11.94
2022-09-20T06:21:01.455Z,11.79
2022-09-20T06:23:27.980Z,11.81
2022-09-20T06:26:07.716Z,10.95
2022-09-20T06:28:38.532Z,10.30
2022-09-20T06:31:07.763Z,10.41
2022-09-20T06:33:44.869Z,10.38
2022-09-20T06:36:34.072Z,10.03
2022-09-20T06:39:52.618Z,10.75
2022-09-20T06:42:19.119Z,10.28
2022-09-20T06:44:45.550Z,10.39
2022-09-20T06:47:13.792Z,10.37
2022-09-20T06:49:44.459Z,11.42
2022-09-20T06:52:14.632Z,11.37
2022-09-20T06:54:45.578Z,11.10
2022-09-20T06:57:18.457Z,10.69
2022-09-20T06:59:45.668Z,10.47
2022-09-20T07:02:12.270Z,10.28
2022-09-20T07:04:39.026Z,10.39
2022-09-20T07:07:09.442Z,10.20
2022-09-20T07:09:36.235Z,10.34
2022-09-20T07:12:05.343Z,10.33
2022-09-20T07:14:32.041Z,10.55
2022-09-20T07:16:58.553Z,10.61
2022-09-20T07:19:25.007Z,10.84
2022-09-20T07:21:51.539Z,10.81
2022-09-20T07:24:18.014Z,11.06
2022-09-20T07:27:11.484Z,11.36
2022-09-20T07:29:37.996Z,11.33
2022-09-20T07:32:04.463Z,11.52
2022-09-20T07:34:30.910Z,11.98
2022-09-20T07:36:59.036Z,11.73
2022-09-20T07:39:26.052Z,12.14
2022-09-20T07:41:53.066Z,12.59
2022-09-20T07:44:24.404Z,12.54
2022-09-20T07:46:52.684Z,12.93
2022-09-20T07:49:19.648Z,13.25
2022-09-20T07:51:46.160Z,13.29
2022-09-20T07:54:12.710Z,13.56
2022-09-20T07:56:39.352Z,13.96
2022-09-20T07:59:06.122Z,14.01
2022-09-20T08:01:32.772Z,13.64
2022-09-20T08:03:59.531Z,13.69
2022-09-20T08:06:26.752Z,14.26
2022-09-20T08:08:53.262Z,14.70
2022-09-20T08:11:27.828Z,14.79
2022-09-20T08:14:11.055Z,14.84
2022-09-20T08:16:40.020Z,14.93
2022-09-20T08:19:06.837Z,14.60
2022-09-20T08:21:34.759Z,14.51
2022-09-20T08:24:01.472Z,14.81
2022-09-20T08:26:28.897Z,15.00
2022-09-20T08:28:57.608Z,14.95
2022-09-20T08:31:26.669Z,15.15
2022-09-20T08:33:54.248Z,15.20
2022-09-20T08:36:23.886Z,15.18
2022-09-20T08:41:47.400Z,15.46
2022-09-20T08:44:27.551Z,15.46
2022-09-20T08:47:22.448Z,15.54
2022-09-20T08:49:56.936Z,15.21
2022-09-20T08:52:36.207Z,15.64
2022-09-20T08:55:16.730Z,15.79
2022-09-20T08:57:44.584Z,15.99
2022-09-20T09:00:17.541Z,15.69
2022-09-20T09:02:44.036Z,15.88
2022-09-20T09:05:26.476Z,15.90
2022-09-20T09:07:52.935Z,16.01
2022-09-20T09:10:19.439Z,15.90
2022-09-20T09:12:48.853Z,15.82
2022-09-20T09:15:24.286Z,16.15
2022-09-20T09:17:50.734Z,16.27
2022-09-20T09:20:21.672Z,16.41
2022-09-20T09:22:58.751Z,16.49
2022-09-20T09:25:39.025Z,16.32
2022-09-20T09:28:08.454Z,16.21
2022-09-20T09:30:46.079Z,16.19
2022-09-20T09:33:28.061Z,16.28
2022-09-20T09:35:59.435Z,16.46
2022-09-20T09:38:31.646Z,16.43
2022-09-20T09:41:29.777Z,15.90
2022-09-20T09:44:09.851Z,16.05
2022-09-20T09:46:39.405Z,16.04
2022-09-20T09:49:13.767Z,16.41
2022-09-20T09:51:43.075Z,16.35
2022-09-20T09:54:17.192Z,16.22
2022-09-20T09:57:20.851Z,16.08
2022-09-20T10:00:14.502Z,16.20
2022-09-20T10:03:21.540Z,15.98
2022-09-20T10:06:19.838Z,16.13
2022-09-20T10:09:05.531Z,16.19
2022-09-20T10:12:09.458Z,16.19
2022-09-20T10:14:46.100Z,16.13
2022-09-20T10:17:29.440Z,16.32
2022-09-20T10:20:25.287Z,16.40
2022-09-20T10:23:30.029Z,16.08
2022-09-20T10:25:53.502Z,15.78
2022-09-20T10:28:31.971Z,15.55
2022-09-20T10:31:16.303Z,15.62
2022-09-20T10:33:46.403Z,15.92
2022-09-20T10:36:22.115Z,16.04
2022-09-20T10:39:01.968Z,16.22
2022-09-20T10:41:53.909Z,16.25
2022-09-20T10:44:20.616Z,16.35
2022-09-20T10:47:02.339Z,16.35
2022-09-20T10:49:46.080Z,15.98
2022-09-20T10:52:45.968Z,16.06
2022-09-20T10:55:33.443Z,15.49
2022-09-20T10:58:24.599Z,15.61
2022-09-20T11:01:02.138Z,16.38
2022-09-20T11:03:50.437Z,16.64
2022-09-20T11:06:25.979Z,16.75
2022-09-20T11:08:56.275Z,16.98
2022-09-20T11:11:26.668Z,17.00
2022-09-20T11:14:03.843Z,17.00
2022-09-20T11:16:38.242Z,17.10
2022-09-20T11:19:26.876Z,17.11
2022-09-20T11:22:02.087Z,17.12
2022-09-20T11:24:35.830Z,17.50
2022-09-20T11:27:15.365Z,17.19
2022-09-20T11:29:44.701Z,17.34
2022-09-20T11:32:16.968Z,17.55
2022-09-20T11:34:56.299Z,17.77
2022-09-20T11:37:28.274Z,18.02
2022-09-20T11:39:55.363Z,18.07
2022-09-20T11:42:28.655Z,18.00
2022-09-20T11:44:55.378Z,17.96
2022-09-20T11:47:49.906Z,17.15
2022-09-20T11:50:11.936Z,17.11
2022-09-20T11:52:57.605Z,17.38
2022-09-20T11:55:39.194Z,18.22
2022-09-20T11:58:11.719Z,18.78
2022-09-20T12:00:44.096Z,18.61
2022-09-20T12:03:36.684Z,18.55
2022-09-20T12:06:05.368Z,18.77
2022-09-20T12:08:39.242Z,18.76
2022-09-20T12:11:11.186Z,18.58
2022-09-20T12:13:40.263Z,18.50
2022-09-20T12:16:09.696Z,18.86
2022-09-20T12:18:46.027Z,19.23
2022-09-20T12:21:17.913Z,19.58
2022-09-20T12:24:00.592Z,19.71
2022-09-20T12:26:26.967Z,18.98
2022-09-20T12:28:58.717Z,19.11
2022-09-20T12:31:26.144Z,18.05
2022-09-20T12:34:18.625Z,17.75
2022-09-20T12:36:54.433Z,18.26
2022-09-20T12:39:32.285Z,17.44
2022-09-20T12:42:10.799Z,17.76
2022-09-20T12:44:49.445Z,17.28
2022-09-20T12:47:22.647Z,17.46
2022-09-20T12:50:09.746Z,17.92
2022-09-20T12:53:04.079Z,16.66
2022-09-20T12:55:56.201Z,17.94
2022-09-20T12:58:48.660Z,18.50
2022-09-20T13:01:15.102Z,19.05
2022-09-20T13:03:49.871Z,19.72
2022-09-20T13:06:17.426Z,20.02
2022-09-20T13:08:48.633Z,19.84
2022-09-20T13:11:30.417Z,20.18
2022-09-20T13:14:06.094Z,20.05
2022-09-20T13:16:52.916Z,19.96
2022-09-20T13:19:34.624Z,19.69
2022-09-20T13:22:02.567Z,18.06
2022-09-20T13:24:35.579Z,19.96
2022-09-20T13:27:06.545Z,20.70
2022-09-20T13:29:37.463Z,20.96
2022-09-20T13:32:24.200Z,21.04
2022-09-20T13:35:12.341Z,21.42
2022-09-20T13:37:44.678Z,21.37
2022-09-20T13:40:19.244Z,21.97
2022-09-20T13:42:49.741Z,22.05
2022-09-20T13:45:17.019Z,22.00
2022-09-20T13:47:44.715Z,22.15
2022-09-20T13:50:18.693Z,22.20
2022-09-20T13:52:52.311Z,22.23
2022-09-20T13:55:21.277Z,21.98
2022-09-20T13:57:48.328Z,22.20
2022-09-20T14:00:15.472Z,21.95
2022-09-20T14:02:42.053Z,21.57
2022-09-20T14:05:15.986Z,21.19
2022-09-20T14:07:45.290Z,20.50
2022-09-20T14:10:50.721Z,20.95
2022-09-20T14:13:18.306Z,21.54
2022-09-20T14:15:46.435Z,21.96
2022-09-20T14:18:22.438Z,21.84
2022-09-20T14:20:48.967Z,21.93
2022-09-20T14:23:22.472Z,21.43
2022-09-20T14:26:05.266Z,21.72
2022-09-20T14:28:31.734Z,21.93
2022-09-20T14:31:16.520Z,21.92
2022-09-20T14:33:46.118Z,22.32
2022-09-20T14:36:15.422Z,22.32
2022-09-20T14:38:47.115Z,22.33
2022-09-20T14:41:13.783Z,21.33
2022-09-20T14:43:41.025Z,20.91
2022-09-20T14:46:17.081Z,19.99
2022-09-20T14:48:45.348Z,20.27
2022-09-20T14:51:25.422Z,19.56
2022-09-20T14:54:04.318Z,19.50
2022-09-20T14:56:36.579Z,19.28
2022-09-20T14:59:06.737Z,19.15
2022-09-20T15:01:34.655Z,18.89
2022-09-20T15:04:07.709Z,18.63
2022-09-20T15:06:38.905Z,18.49
2022-09-20T15:09:05.627Z,18.33
2022-09-20T15:11:33.298Z,18.11
2022-09-20T15:13:59.788Z,17.99
2022-09-20T15:16:27.509Z,17.97
2022-09-20T15:18:54.826Z,17.90
2022-09-20T15:21:21.743Z,17.80
2022-09-20T15:23:48.452Z,17.88
2022-09-20T15:26:15.271Z,17.98
2022-09-20T15:31:34.560Z,17.93
2022-09-20T15:34:01.301Z,17.90
2022-09-20T15:36:32.113Z,17.95
2022-09-20T15:39:09.850Z,17.92
2022-09-20T15:41:36.479Z,17.84
2022-09-20T15:44:04.555Z,17.73
2022-09-20T15:46:31.959Z,17.63
2022-09-20T15:49:00.757Z,17.56
2022-09-20T15:51:28.393Z,17.44
2022-09-20T15:57:05.281Z,17.44
2022-09-20T15:59:34.459Z,17.53
2022-09-20T16:02:01.260Z,17.57
2022-09-20T16:04:27.977Z,17.69
2022-09-20T16:06:54.506Z,17.55
2022-09-20T16:09:21.099Z,17.58
2022-09-20T16:11:48.240Z,17.39
2022-09-20T16:14:15.091Z,17.37
2022-09-20T16:16:47.990Z,17.26
2022-09-20T16:19:17.419Z,17.30
2022-09-20T16:25:04.654Z,17.04
2022-09-20T16:27:34.111Z,16.87
2022-09-20T16:30:02.220Z,16.72
2022-09-20T16:32:28.729Z,16.52
2022-09-20T16:34:55.223Z,16.40
2022-09-20T16:37:22.791Z,16.25
2022-09-20T16:39:49.246Z,16.06
2022-09-20T16:42:16.984Z,15.96
2022-09-20T16:44:43.441Z,15.88
2022-09-20T16:47:11.979Z,15.79
2022-09-20T16:49:38.558Z,15.69
2022-09-20T16:52:06.164Z,15.57
2022-09-20T16:54:33.723Z,15.42
2022-09-20T16:57:02.563Z,15.31
2022-09-20T16:59:29.067Z,15.21
2022-09-20T17:01:55.642Z,15.13
2022-09-20T17:04:24.197Z,15.03
2022-09-20T17:06:51.414Z,14.84
2022-09-20T17:09:17.887Z,14.76
2022-09-20T17:11:46.183Z,14.65
2022-09-20T17:14:13.428Z,14.52
2022-09-20T17:16:41.463Z,14.39
2022-09-20T17:19:12.684Z,14.31
2022-09-20T17:21:43.295Z,14.11
2022-09-20T17:24:10.857Z,13.98
2022-09-20T17:26:40.213Z,13.81
2022-09-20T17:29:09.773Z,13.63
2022-09-20T17:31:41.654Z,13.58
2022-09-20T17:34:10.054Z,13.44
2022-09-20T17:36:41.755Z,13.30
2022-09-20T17:39:12.884Z,13.22
2022-09-20T17:41:41.303Z,13.15
2022-09-20T17:44:09.836Z,13.05
2022-09-20T17:46:38.514Z,12.97
2022-09-20T17:49:08.115Z,12.81
2022-09-20T17:51:44.648Z,12.65
2022-09-20T17:54:14.543Z,12.62
2022-09-20T17:56:43.410Z,12.55
2022-09-20T17:59:10.991Z,12.48
2022-09-20T18:01:38.517Z,12.33
2022-09-20T18:04:06.338Z,12.40
2022-09-20T18:06:38.656Z,12.37
2022-09-20T18:09:07.710Z,12.28
2022-09-20T18:11:40.319Z,12.13
2022-09-20T18:14:08.286Z,12.10
2022-09-20T18:16:35.098Z,12.10
2022-09-20T18:19:01.967Z,12.02
2022-09-20T18:21:29.599Z,12.04
2022-09-20T18:23:57.107Z,12.00
2022-09-20T18:26:25.770Z,11.96
2022-09-20T18:29:00.167Z,11.97
2022-09-20T18:31:32.119Z,11.96
2022-09-20T18:34:02.449Z,11.89
2022-09-20T18:36:30.275Z,11.90
2022-09-20T18:38:58.084Z,11.85
2022-09-20T18:41:26.593Z,11.82
2022-09-20T18:43:54.558Z,11.79
2022-09-20T18:46:24.746Z,11.75
2022-09-20T18:49:05.408Z,11.60
2022-09-20T18:51:35.820Z,11.46
2022-09-20T18:54:05.468Z,11.41
2022-09-20T18:56:34.535Z,11.31
2022-09-20T18:59:04.034Z,11.05
2022-09-20T19:01:55.568Z,11.05
2022-09-20T19:04:46.878Z,11.02
2022-09-20T19:07:41.335Z,10.96
2022-09-20T19:10:37.355Z,10.91
2022-09-20T19:13:42.028Z,10.71
2022-09-20T19:16:20.448Z,10.65
2022-09-20T19:19:06.230Z,10.54
2022-09-20T19:21:58.766Z,10.52
2022-09-20T19:24:50.783Z,10.41
2022-09-20T19:27:17.304Z,10.38
2022-09-20T19:29:44.000Z,10.38
2022-09-20T19:32:17.291Z,10.32
2022-09-20T19:34:44.482Z,10.27
2022-09-20T19:37:26.163Z,10.30
2022-09-20T19:40:32.841Z,10.07
2022-09-20T19:43:24.030Z,10.10
2022-09-20T19:46:20.451Z,10.16
2022-09-20T19:48:54.989Z,10.16
2022-09-20T19:51:22.322Z,10.17
2022-09-20T19:53:49.880Z,10.04
2022-09-20T19:56:27.607Z,10.07
2022-09-20T19:58:55.976Z,10.02
2022-09-20T20:01:23.819Z,9.95
2022-09-20T20:03:51.207Z,9.75
2022-09-20T20:06:33.334Z,9.47
2022-09-20T20:09:08.975Z,8.69
2022-09-20T20:11:56.406Z,8.86
2022-09-20T20:14:51.618Z,8.20
2022-09-20T20:17:46.154Z,8.28
2022-09-20T20:20:54.152Z,8.85
2022-09-20T20:23:27.856Z,8.88
2022-09-20T20:26:02.872Z,8.96
2022-09-20T20:28:30.158Z,9.03
2022-09-20T20:31:00.140Z,9.20
2022-09-20T20:33:28.958Z,9.20
2022-09-20T20:35:56.952Z,9.23
2022-09-20T20:38:26.399Z,9.16
2022-09-20T20:41:05.117Z,9.01
2022-09-20T20:43:36.326Z,8.92
2022-09-20T20:46:04.157Z,8.85
2022-09-20T20:48:30.751Z,8.75
2022-09-20T20:51:01.855Z,8.69
2022-09-20T20:53:36.252Z,8.83
2022-09-20T20:56:07.089Z,8.79
2022-09-20T20:58:34.827Z,8.76
2022-09-20T21:01:21.647Z,8.46
2022-09-20T21:03:50.002Z,7.93
2022-09-20T21:06:17.094Z,7.60
2022-09-20T21:08:48.992Z,7.28
2022-09-20T21:11:18.604Z,7.88
2022-09-20T21:13:46.990Z,8.15
2022-09-20T21:16:15.830Z,8.17
2022-09-20T21:18:43.515Z,8.25
2022-09-20T21:21:24.770Z,8.23
2022-09-20T21:23:53.059Z,8.24
2022-09-20T21:26:20.584Z,8.03
2022-09-20T21:28:52.109Z,7.64
2022-09-20T21:31:20.657Z,7.89
2022-09-20T21:33:47.300Z,8.03
2022-09-20T21:36:15.975Z,8.09
2022-09-20T21:38:43.814Z,8.06
2022-09-20T21:41:14.382Z,8.09
2022-09-20T21:43:42.761Z,8.07
2022-09-20T21:46:19.726Z,8.04
2022-09-20T21:48:47.549Z,8.06
2022-09-20T21:51:16.753Z,8.11
2022-09-20T21:53:43.314Z,8.01
2022-09-20T21:56:11.939Z,7.93
2022-09-20T21:58:41.215Z,7.89
2022-09-20T22:01:11.472Z,7.83
2022-09-20T22:03:39.127Z,7.90
2022-09-20T22:06:11.446Z,7.93
2022-09-20T22:08:39.781Z,7.88
2022-09-20T22:11:10.220Z,7.90
2022-09-20T22:13:40.128Z,7.79
2022-09-20T22:16:09.535Z,7.53
2022-09-20T22:18:38.244Z,7.41
2022-09-20T22:21:08.073Z,7.36
2022-09-20T22:23:35.134Z,7.33
2022-09-20T22:26:13.194Z,7.23
2022-09-20T22:28:40.491Z,7.33
2022-09-20T22:31:14.986Z,7.38
2022-09-20T22:33:43.259Z,7.42
2022-09-20T22:36:11.023Z,7.19
2022-09-20T22:38:37.490Z,6.30
2022-09-20T22:41:03.964Z,6.15
2022-09-20T22:43:32.565Z,5.96
2022-09-20T22:46:04.520Z,6.22
2022-09-20T22:48:32.088Z,6.74
2022-09-20T22:51:18.425Z,7.06
2022-09-20T22:53:45.450Z,7.19
2022-09-20T22:56:19.203Z,7.23
2022-09-20T22:58:47.826Z,7.31
2022-09-20T23:01:25.547Z,7.22
2022-09-20T23:03:56.700Z,7.10
2022-09-20T23:06:29.146Z,6.78
2022-09-20T23:08:57.494Z,6.98
2022-09-20T23:11:24.389Z,7.24
2022-09-20T23:13:56.133Z,7.42
2022-09-20T23:16:25.181Z,7.49
2022-09-20T23:18:53.052Z,7.12
2022-09-20T23:21:19.899Z,7.25
2022-09-20T23:23:48.013Z,7.29
2022-09-20T23:26:18.496Z,7.40
2022-09-20T23:28:46.876Z,7.06
2022-09-20T23:31:17.279Z,7.20
2022-09-20T23:33:51.515Z,7.34
2022-09-20T23:36:19.063Z,7.39
2022-09-20T23:38:45.979Z,7.40
2022-09-20T23:41:13.972Z,7.20
2022-09-20T23:43:41.363Z,7.33
2022-09-20T23:46:09.555Z,7.37
2022-09-20T23:48:36.323Z,7.43
2022-09-20T23:51:04.075Z,7.41
2022-09-20T23:53:30.535Z,7.37
2022-09-20T23:55:56.973Z,7.28
2022-09-20T23:58:23.510Z,7.20
